createdAt,value
2023-02-26T00:01:28.778Z,0.93
2023-02-26T00:03:57.904Z,1.27
2023-02-26T00:06:26.311Z,1.38
2023-02-26T00:08:53.816Z,1.00
2023-02-26T00:11:22.365Z,1.40
2023-02-26T00:13:49.341Z,1.20
2023-02-26T00:16:24.948Z,1.20
2023-02-26T00:18:52.130Z,1.15
2023-02-26T00:21:20.187Z,1.50
2023-02-26T00:23:47.049Z,1.45
2023-02-26T00:26:13.583Z,1.20
2023-02-26T00:28:41.032Z,1.23
2023-02-26T00:31:08.382Z,1.15
2023-02-26T00:33:35.361Z,1.20
2023-02-26T00:36:29.333Z,1.30
2023-02-26T00:38:55.889Z,1.10
2023-02-26T00:41:23.028Z,1.33
2023-02-26T00:43:49.807Z,0.90
2023-02-26T00:46:34.741Z,1.10
2023-02-26T00:49:44.918Z,1.42
2023-02-26T00:52:19.248Z,1.52
2023-02-26T00:54:45.825Z,1.42
2023-02-26T00:57:12.256Z,0.90
2023-02-26T00:59:38.984Z,0.95
2023-02-26T01:02:05.479Z,1.35
2023-02-26T01:04:32.300Z,1.35
2023-02-26T01:06:59.076Z,1.10
2023-02-26T01:09:33.943Z,1.25
2023-02-26T01:12:04.439Z,0.93
2023-02-26T01:14:32.618Z,1.15
2023-02-26T01:17:21.188Z,0.90
2023-02-26T01:19:55.623Z,1.50
2023-02-26T01:22:42.561Z,1.10
2023-02-26T01:25:16.268Z,1.08
2023-02-26T01:27:42.964Z,1.13
2023-02-26T01:30:10.290Z,1.48
2023-02-26T01:32:53.321Z,1.13
2023-02-26T01:35:44.187Z,1.00
2023-02-26T01:38:25.810Z,0.90
2023-02-26T01:41:06.996Z,1.40
2023-02-26T01:43:36.472Z,1.60
2023-02-26T01:46:18.303Z,1.08
2023-02-26T01:48:56.659Z,0.90
2023-02-26T01:51:47.260Z,1.15
2023-02-26T01:54:16.309Z,0.80
2023-02-26T01:56:45.809Z,0.90
2023-02-26T01:59:15.893Z,1.30
2023-02-26T02:01:43.215Z,0.82
2023-02-26T02:04:16.028Z,1.00
2023-02-26T02:09:10.591Z,0.70
2023-02-26T02:12:06.129Z,0.90
2023-02-26T02:14:45.831Z,1.27
2023-02-26T02:17:33.115Z,1.08
2023-02-26T02:20:22.815Z,0.90
2023-02-26T02:22:49.214Z,0.98
2023-02-26T02:26:09.354Z,0.95
2023-02-26T02:29:06.516Z,0.93
2023-02-26T02:31:43.872Z,1.00
2023-02-26T02:34:21.365Z,0.70
2023-02-26T02:37:02.550Z,1.00
2023-02-26T02:39:43.375Z,0.80
2023-02-26T02:42:35.462Z,0.90
2023-02-26T02:45:19.414Z,0.90
2023-02-26T02:47:52.478Z,0.80
2023-02-26T02:50:38.269Z,1.10
2023-02-26T02:53:13.987Z,0.80
2023-02-26T02:55:50.056Z,0.90
2023-02-26T02:58:25.325Z,0.80
2023-02-26T03:00:57.941Z,0.80
2023-02-26T03:03:55.163Z,1.00
2023-02-26T03:06:21.750Z,1.10
2023-02-26T03:08:50.084Z,0.90
2023-02-26T03:11:16.745Z,0.70
2023-02-26T03:13:44.579Z,0.85
2023-02-26T03:16:26.541Z,1.02
2023-02-26T03:19:23.351Z,1.25
2023-02-26T03:21:56.501Z,1.00
2023-02-26T03:24:38.357Z,0.82
2023-02-26T03:27:14.414Z,0.82
2023-02-26T03:29:49.540Z,0.90
2023-02-26T03:32:24.910Z,1.10
2023-02-26T03:35:01.497Z,0.75
2023-02-26T03:37:37.736Z,0.65
2023-02-26T03:40:12.021Z,1.38
2023-02-26T03:42:47.683Z,0.75
2023-02-26T03:45:19.172Z,0.80
2023-02-26T03:47:49.515Z,0.70
2023-02-26T03:50:22.112Z,0.98
2023-02-26T03:52:50.874Z,1.25
2023-02-26T03:55:22.164Z,0.95
2023-02-26T03:57:49.949Z,0.85
2023-02-26T04:00:17.860Z,0.85
2023-02-26T04:02:54.508Z,0.80
2023-02-26T04:05:26.449Z,1.20
2023-02-26T04:07:53.573Z,0.63
2023-02-26T04:10:25.295Z,0.65
2023-02-26T04:12:51.756Z,0.80
2023-02-26T04:15:18.459Z,0.68
2023-02-26T04:17:44.973Z,1.25
2023-02-26T04:20:12.004Z,0.73
2023-02-26T04:22:38.653Z,0.85
2023-02-26T04:25:05.698Z,1.10
2023-02-26T04:27:32.148Z,1.17
2023-02-26T04:29:58.574Z,1.17
2023-02-26T04:32:25.178Z,0.90
2023-02-26T04:34:51.772Z,1.15
2023-02-26T04:37:18.280Z,0.75
2023-02-26T04:39:44.759Z,1.05
2023-02-26T04:42:11.259Z,1.20
2023-02-26T04:44:37.786Z,0.90
2023-02-26T04:47:04.315Z,0.80
2023-02-26T04:49:31.390Z,0.70
2023-02-26T04:51:57.834Z,1.00
2023-02-26T04:54:24.497Z,0.82
2023-02-26T04:56:50.949Z,0.73
2023-02-26T04:59:17.401Z,0.90
2023-02-26T05:01:43.972Z,0.93
2023-02-26T05:04:10.658Z,0.80
2023-02-26T05:06:37.278Z,1.10
2023-02-26T05:09:04.342Z,0.93
2023-02-26T05:11:30.907Z,0.82
2023-02-26T05:13:57.415Z,0.80
2023-02-26T05:16:24.180Z,0.95
2023-02-26T05:18:50.883Z,0.80
2023-02-26T05:21:17.460Z,0.70
2023-02-26T05:23:44.053Z,1.17
2023-02-26T05:26:10.697Z,0.80
2023-02-26T05:28:38.121Z,0.70
2023-02-26T05:31:04.976Z,0.82
2023-02-26T05:33:31.569Z,0.80
2023-02-26T05:35:58.166Z,0.70
2023-02-26T05:38:24.717Z,1.00
2023-02-26T05:40:51.269Z,0.85
2023-02-26T05:43:17.736Z,1.50
2023-02-26T05:45:44.193Z,0.90
2023-02-26T05:48:11.218Z,1.15
2023-02-26T05:50:37.696Z,0.70
2023-02-26T05:53:04.129Z,0.80
2023-02-26T05:55:30.629Z,0.95
2023-02-26T05:57:57.179Z,0.88
2023-02-26T06:00:23.677Z,0.90
2023-02-26T06:02:50.164Z,0.70
2023-02-26T06:05:16.743Z,0.98
2023-02-26T06:07:43.277Z,0.70
2023-02-26T06:10:11.027Z,0.82
2023-02-26T06:12:38.439Z,0.75
2023-02-26T06:15:06.175Z,1.48
2023-02-26T06:17:33.110Z,0.85
2023-02-26T06:20:00.057Z,1.05
2023-02-26T06:22:26.591Z,1.48
2023-02-26T06:24:55.034Z,1.13
2023-02-26T06:27:22.590Z,1.15
2023-02-26T06:29:49.155Z,1.20
2023-02-26T06:32:15.660Z,0.80
2023-02-26T06:34:42.454Z,1.20
2023-02-26T06:37:09.012Z,1.63
2023-02-26T06:39:35.592Z,1.17
2023-02-26T06:42:02.149Z,1.33
2023-02-26T06:44:28.802Z,1.10
2023-02-26T06:46:55.233Z,1.00
2023-02-26T06:49:21.738Z,1.08
2023-02-26T06:51:48.328Z,1.15
2023-02-26T06:54:14.939Z,1.35
2023-02-26T06:56:41.415Z,1.02
2023-02-26T06:59:08.016Z,1.00
2023-02-26T07:01:34.471Z,1.02
2023-02-26T07:04:01.064Z,0.98
2023-02-26T07:06:28.236Z,1.15
2023-02-26T07:08:55.686Z,1.05
2023-02-26T07:11:22.833Z,0.95
2023-02-26T07:13:49.445Z,0.95
2023-02-26T07:16:15.945Z,1.30
2023-02-26T07:18:42.547Z,0.90
2023-02-26T07:21:09.174Z,1.13
2023-02-26T07:23:35.683Z,1.10
2023-02-26T07:26:02.415Z,0.90
2023-02-26T07:28:28.891Z,1.00
2023-02-26T07:30:56.421Z,1.30
2023-02-26T07:33:23.176Z,1.10
2023-02-26T07:35:49.751Z,1.25
2023-02-26T07:38:17.584Z,1.38
2023-02-26T07:40:45.713Z,1.17
2023-02-26T07:43:12.720Z,1.50
2023-02-26T07:45:39.175Z,1.20
2023-02-26T07:48:05.732Z,1.27
2023-02-26T07:50:33.630Z,1.30
2023-02-26T07:53:00.356Z,1.00
2023-02-26T07:55:27.721Z,1.15
2023-02-26T07:57:54.511Z,1.48
2023-02-26T08:00:21.459Z,1.20
2023-02-26T08:02:48.075Z,0.98
2023-02-26T08:05:14.640Z,1.15
2023-02-26T08:07:41.252Z,1.40
2023-02-26T08:10:08.484Z,1.63
2023-02-26T08:12:35.088Z,1.27
2023-02-26T08:15:01.591Z,1.70
2023-02-26T08:17:28.279Z,1.27
2023-02-26T08:19:54.774Z,1.10
2023-02-26T08:22:22.038Z,1.55
2023-02-26T08:24:48.679Z,1.10
2023-02-26T08:27:15.162Z,1.02
2023-02-26T08:29:42.798Z,1.60
2023-02-26T08:32:09.412Z,1.13
2023-02-26T08:34:35.997Z,1.13
2023-02-26T08:37:02.553Z,1.10
2023-02-26T08:39:32.963Z,0.95
2023-02-26T08:41:59.404Z,1.25
2023-02-26T08:44:25.936Z,1.20
2023-02-26T08:46:52.502Z,1.50
2023-02-26T08:49:19.140Z,1.02
2023-02-26T08:51:45.631Z,1.35
2023-02-26T08:54:12.173Z,1.02
2023-02-26T08:56:38.925Z,1.00
2023-02-26T08:59:05.757Z,1.15
2023-02-26T09:01:32.524Z,1.10
2023-02-26T09:03:59.108Z,1.33
2023-02-26T09:06:26.034Z,1.13
2023-02-26T09:08:52.680Z,1.50
2023-02-26T09:11:19.130Z,1.60
2023-02-26T09:13:45.655Z,1.00
2023-02-26T09:16:12.197Z,1.02
2023-02-26T09:18:38.820Z,1.10
2023-02-26T09:21:05.608Z,0.70
2023-02-26T09:23:32.134Z,1.00
2023-02-26T09:25:58.708Z,1.00
2023-02-26T09:28:26.505Z,1.10
2023-02-26T09:30:54.821Z,0.98
2023-02-26T09:33:22.452Z,0.95
2023-02-26T09:35:50.486Z,0.80
2023-02-26T09:38:17.632Z,1.42
2023-02-26T09:40:50.978Z,1.02
2023-02-26T09:43:54.578Z,0.90
2023-02-26T09:49:04.252Z,0.75
2023-02-26T09:51:33.319Z,1.00
2023-02-26T09:54:02.626Z,0.70
2023-02-26T09:56:36.864Z,1.00
2023-02-26T09:59:03.507Z,0.80
2023-02-26T10:01:34.058Z,0.70
2023-02-26T10:04:22.940Z,0.80
2023-02-26T10:07:14.436Z,1.27
2023-02-26T10:09:57.286Z,0.70
2023-02-26T10:12:27.764Z,1.25
2023-02-26T10:15:13.268Z,0.98
2023-02-26T10:17:42.503Z,0.93
2023-02-26T10:20:17.429Z,0.60
2023-02-26T10:23:06.442Z,0.90
2023-02-26T10:26:06.498Z,0.70
2023-02-26T10:28:49.090Z,0.60
2023-02-26T10:31:35.546Z,0.80
2023-02-26T10:34:30.514Z,0.65
2023-02-26T10:37:20.787Z,0.45
2023-02-26T10:39:59.581Z,0.77
2023-02-26T10:42:31.925Z,0.70
2023-02-26T10:45:09.588Z,0.63
2023-02-26T10:47:36.137Z,0.60
2023-02-26T10:50:14.563Z,0.90
2023-02-26T10:52:43.570Z,0.52
2023-02-26T10:55:27.695Z,1.25
2023-02-26T10:58:05.302Z,1.17
2023-02-26T11:00:35.240Z,0.80
2023-02-26T11:03:04.568Z,0.90
2023-02-26T11:05:33.180Z,0.93
2023-02-26T11:08:28.608Z,0.82
2023-02-26T11:11:00.953Z,0.77
2023-02-26T11:13:30.600Z,0.60
2023-02-26T11:16:04.076Z,0.98
2023-02-26T11:18:38.413Z,0.80
2023-02-26T11:21:06.857Z,0.70
2023-02-26T11:26:14.638Z,0.80
2023-02-26T11:28:50.061Z,0.70
2023-02-26T11:31:19.820Z,0.70
2023-02-26T11:33:51.758Z,0.90
2023-02-26T11:36:20.776Z,0.75
2023-02-26T11:38:53.796Z,1.10
2023-02-26T11:43:50.617Z,0.68
2023-02-26T11:46:17.155Z,1.00
2023-02-26T11:48:47.478Z,0.95
2023-02-26T11:51:18.858Z,0.90
2023-02-26T11:53:52.357Z,1.08
2023-02-26T11:56:41.969Z,0.73
2023-02-26T11:59:19.559Z,0.95
2023-02-26T12:01:47.262Z,0.80
2023-02-26T12:04:18.776Z,0.68
2023-02-26T12:06:49.052Z,0.80
2023-02-26T12:09:15.599Z,1.00
2023-02-26T12:12:01.607Z,0.90
2023-02-26T12:14:59.091Z,1.30
2023-02-26T12:17:47.438Z,0.68
2023-02-26T12:20:38.370Z,1.00
2023-02-26T12:23:13.591Z,1.48
2023-02-26T12:25:52.334Z,1.20
2023-02-26T12:28:39.419Z,1.30
2023-02-26T12:31:27.109Z,1.10
2023-02-26T12:34:12.243Z,1.33
2023-02-26T12:36:48.831Z,0.90
2023-02-26T12:39:37.978Z,0.80
2023-02-26T12:42:07.606Z,1.00
2023-02-26T12:44:40.026Z,0.80
2023-02-26T12:47:15.825Z,0.80
2023-02-26T12:49:49.236Z,0.80
2023-02-26T12:52:24.593Z,0.80
2023-02-26T12:54:53.979Z,0.90
2023-02-26T12:57:55.255Z,0.82
2023-02-26T13:00:40.394Z,0.73
2023-02-26T13:03:41.171Z,0.80
2023-02-26T13:06:43.747Z,1.00
2023-02-26T13:09:31.099Z,0.73
2023-02-26T13:12:28.501Z,1.02
2023-02-26T13:15:11.478Z,1.00
2023-02-26T13:17:51.619Z,1.10
2023-02-26T13:20:23.955Z,0.70
2023-02-26T13:23:13.870Z,0.75
2023-02-26T13:25:56.243Z,1.10
2023-02-26T13:28:51.608Z,0.73
2023-02-26T13:31:55.685Z,0.80
2023-02-26T13:34:42.288Z,0.77
2023-02-26T13:37:23.166Z,0.80
2023-02-26T13:40:14.664Z,0.77
2023-02-26T13:42:49.742Z,0.60
2023-02-26T13:45:43.316Z,0.90
2023-02-26T13:48:30.798Z,0.65
2023-02-26T13:51:09.576Z,0.85
2023-02-26T13:53:48.873Z,0.90
2023-02-26T13:56:22.405Z,0.90
2023-02-26T13:58:55.351Z,1.10
2023-02-26T14:04:21.456Z,0.93
2023-02-26T14:07:13.128Z,0.70
2023-02-26T14:09:51.726Z,0.80
2023-02-26T14:12:33.931Z,0.95
2023-02-26T14:15:00.553Z,0.70
2023-02-26T14:17:39.489Z,0.80
2023-02-26T14:20:18.400Z,0.80
2023-02-26T14:22:50.584Z,0.63
2023-02-26T14:25:36.137Z,0.80
2023-02-26T14:28:21.274Z,0.80
2023-02-26T14:30:52.283Z,0.80
2023-02-26T14:33:27.787Z,1.10
2023-02-26T14:35:54.720Z,0.80
2023-02-26T14:38:25.745Z,0.98
2023-02-26T14:41:26.004Z,0.90
2023-02-26T14:44:16.002Z,0.77
2023-02-26T14:46:44.398Z,0.70
2023-02-26T14:49:38.416Z,0.70
2023-02-26T14:52:17.009Z,0.68
2023-02-26T14:55:12.270Z,1.17
2023-02-26T14:57:41.596Z,0.93
2023-02-26T15:00:39.120Z,0.90
2023-02-26T15:03:35.869Z,1.10
2023-02-26T15:06:27.170Z,0.77
2023-02-26T15:09:05.573Z,0.63
2023-02-26T15:11:40.848Z,0.60
2023-02-26T15:14:16.470Z,0.60
2023-02-26T15:16:52.182Z,0.60
2023-02-26T15:19:46.564Z,0.80
2023-02-26T15:22:23.185Z,0.70
2023-02-26T15:24:49.955Z,0.88
2023-02-26T15:27:19.478Z,0.60
2023-02-26T15:29:47.869Z,0.85
2023-02-26T15:32:29.088Z,0.80
2023-02-26T15:35:04.622Z,0.70
2023-02-26T15:37:35.248Z,0.85
2023-02-26T15:40:05.503Z,0.70
2023-02-26T15:42:41.465Z,0.65
2023-02-26T15:45:23.247Z,0.70
2023-02-26T15:47:57.480Z,0.70
2023-02-26T15:50:30.921Z,0.98
2023-02-26T15:53:01.669Z,0.68
2023-02-26T15:55:35.382Z,0.55
2023-02-26T15:58:03.868Z,1.08
2023-02-26T16:00:35.345Z,0.95
2023-02-26T16:03:01.937Z,0.90
2023-02-26T16:05:29.461Z,0.98
2023-02-26T16:07:56.887Z,1.00
2023-02-26T16:10:38.145Z,0.77
2023-02-26T16:13:07.097Z,0.90
2023-02-26T16:15:39.692Z,0.70
2023-02-26T16:18:16.118Z,0.85
2023-02-26T16:20:49.323Z,0.68
2023-02-26T16:23:20.804Z,0.90
2023-02-26T16:25:54.491Z,0.90
2023-02-26T16:28:24.275Z,0.60
2023-02-26T16:30:54.581Z,0.70
2023-02-26T16:33:23.868Z,0.75
2023-02-26T16:35:56.999Z,0.70
2023-02-26T16:38:31.528Z,0.80
2023-02-26T16:41:06.361Z,0.90
2023-02-26T16:43:49.731Z,0.90
2023-02-26T16:46:31.254Z,1.30
2023-02-26T16:49:04.998Z,1.27
2023-02-26T16:51:34.724Z,2.42
2023-02-26T16:54:07.455Z,2.65
2023-02-26T16:56:42.225Z,2.20
2023-02-26T16:59:22.559Z,2.70
2023-02-26T17:01:52.596Z,2.10
2023-02-26T17:04:23.452Z,2.60
2023-02-26T17:06:50.207Z,2.25
2023-02-26T17:09:40.191Z,1.50
2023-02-26T17:12:40.126Z,1.40
2023-02-26T17:15:18.241Z,1.20
2023-02-26T17:17:44.869Z,1.13
2023-02-26T17:20:12.633Z,0.90
2023-02-26T17:22:39.615Z,1.20
2023-02-26T17:25:06.363Z,1.60
2023-02-26T17:27:36.743Z,1.17
2023-02-26T17:30:06.030Z,1.20
2023-02-26T17:32:33.217Z,1.77
2023-02-26T17:34:59.942Z,1.20
2023-02-26T17:37:33.358Z,1.20
2023-02-26T17:40:00.176Z,1.25
2023-02-26T17:42:26.916Z,1.23
2023-02-26T17:44:55.164Z,1.35
2023-02-26T17:47:23.894Z,1.35
2023-02-26T17:49:50.420Z,1.17
2023-02-26T17:52:17.225Z,1.60
2023-02-26T17:54:43.729Z,2.10
2023-02-26T17:57:17.255Z,1.90
2023-02-26T17:59:43.786Z,1.38
2023-02-26T18:02:27.148Z,1.65
2023-02-26T18:04:54.124Z,1.30
2023-02-26T18:07:21.798Z,1.65
2023-02-26T18:09:48.411Z,1.45
2023-02-26T18:12:19.880Z,1.13
2023-02-26T18:14:46.598Z,1.10
2023-02-26T18:17:15.208Z,1.00
2023-02-26T18:19:42.812Z,0.95
2023-02-26T18:22:14.012Z,0.98
2023-02-26T18:24:41.460Z,1.00
2023-02-26T18:27:21.703Z,1.00
2023-02-26T18:29:48.338Z,1.15
2023-02-26T18:32:17.306Z,0.93
2023-02-26T18:34:44.245Z,1.23
2023-02-26T18:37:20.345Z,1.05
2023-02-26T18:39:47.041Z,0.90
2023-02-26T18:42:34.024Z,1.08
2023-02-26T18:45:00.545Z,1.00
2023-02-26T18:47:27.102Z,1.05
2023-02-26T18:49:53.764Z,1.48
2023-02-26T18:52:20.478Z,1.50
2023-02-26T18:54:46.991Z,1.52
2023-02-26T18:57:13.729Z,1.10
2023-02-26T18:59:40.309Z,2.05
2023-02-26T19:02:08.039Z,1.40
2023-02-26T19:04:34.942Z,1.42
2023-02-26T19:07:01.637Z,1.40
2023-02-26T19:09:28.749Z,1.50
2023-02-26T19:11:57.227Z,1.60
2023-02-26T19:14:24.655Z,1.60
2023-02-26T19:16:51.154Z,2.00
2023-02-26T19:19:18.243Z,1.13
2023-02-26T19:21:44.845Z,1.42
2023-02-26T19:24:12.792Z,1.50
2023-02-26T19:26:40.326Z,1.50
2023-02-26T19:29:08.632Z,1.20
2023-02-26T19:31:36.635Z,2.05
2023-02-26T19:34:04.212Z,1.52
2023-02-26T19:36:33.775Z,1.42
2023-02-26T19:39:11.878Z,1.67
2023-02-26T19:41:38.458Z,1.92
2023-02-26T19:44:04.913Z,1.70
2023-02-26T19:46:31.502Z,2.10
2023-02-26T19:48:58.066Z,2.03
2023-02-26T19:51:25.139Z,1.98
2023-02-26T19:53:56.058Z,2.10
2023-02-26T19:56:22.484Z,2.00
2023-02-26T19:58:49.153Z,1.70
2023-02-26T20:01:15.710Z,1.60
2023-02-26T20:03:42.227Z,2.13
2023-02-26T20:06:10.150Z,1.95
2023-02-26T20:08:36.672Z,1.80
2023-02-26T20:11:03.288Z,1.70
2023-02-26T20:13:34.536Z,1.70
2023-02-26T20:16:03.683Z,1.70
2023-02-26T20:18:31.327Z,1.90
2023-02-26T20:21:03.341Z,1.58
2023-02-26T20:23:30.540Z,1.80
2023-02-26T20:25:58.202Z,1.88
2023-02-26T20:28:25.472Z,1.52
2023-02-26T20:30:52.378Z,1.65
2023-02-26T20:33:21.100Z,1.13
2023-02-26T20:35:48.106Z,1.27
2023-02-26T20:38:18.803Z,1.50
2023-02-26T20:40:46.834Z,1.35
2023-02-26T20:43:14.075Z,1.40
2023-02-26T20:45:41.943Z,1.48
2023-02-26T20:48:09.348Z,1.45
2023-02-26T20:50:36.456Z,1.20
2023-02-26T20:53:06.612Z,1.42
2023-02-26T20:55:33.887Z,1.30
2023-02-26T20:58:00.457Z,1.55
2023-02-26T21:00:27.099Z,1.40
2023-02-26T21:02:53.727Z,1.30
2023-02-26T21:05:20.783Z,1.38
2023-02-26T21:07:47.900Z,1.58
2023-02-26T21:10:16.248Z,1.50
2023-02-26T21:12:42.881Z,1.52
2023-02-26T21:15:10.660Z,1.55
2023-02-26T21:17:38.756Z,1.30
2023-02-26T21:20:06.801Z,1.65
2023-02-26T21:22:35.445Z,1.30
2023-02-26T21:25:03.046Z,1.52
2023-02-26T21:27:29.533Z,1.50
2023-02-26T21:29:56.063Z,1.25
2023-02-26T21:32:22.585Z,1.50
2023-02-26T21:34:49.180Z,1.60
2023-02-26T21:37:15.698Z,2.08
2023-02-26T21:39:42.296Z,1.60
2023-02-26T21:42:12.028Z,1.60
2023-02-26T21:44:38.598Z,1.60
2023-02-26T21:47:05.097Z,1.40
2023-02-26T21:49:32.010Z,1.63
2023-02-26T21:51:59.929Z,1.88
2023-02-26T21:54:26.585Z,2.08
2023-02-26T21:56:53.527Z,2.22
2023-02-26T21:59:20.417Z,1.67
2023-02-26T22:01:46.977Z,2.00
2023-02-26T22:04:13.570Z,1.92
2023-02-26T22:06:40.069Z,2.22
2023-02-26T22:09:06.749Z,1.73
2023-02-26T22:11:33.278Z,2.35
2023-02-26T22:13:59.768Z,2.30
2023-02-26T22:16:26.825Z,1.85
2023-02-26T22:18:53.427Z,2.05
2023-02-26T22:21:20.286Z,2.45
2023-02-26T22:23:46.832Z,2.00
2023-02-26T22:26:13.312Z,1.67
2023-02-26T22:28:39.891Z,2.28
2023-02-26T22:31:06.672Z,2.10
2023-02-26T22:33:33.411Z,1.58
2023-02-26T22:36:00.324Z,1.73
2023-02-26T22:38:27.102Z,1.60
2023-02-26T22:40:53.825Z,2.58
2023-02-26T22:43:20.612Z,2.10
2023-02-26T22:45:48.591Z,1.75
2023-02-26T22:48:17.030Z,1.75
2023-02-26T22:50:43.680Z,2.15
2023-02-26T22:53:10.283Z,2.15
2023-02-26T22:55:36.894Z,2.22
2023-02-26T22:58:03.606Z,2.10
2023-02-26T23:00:30.292Z,2.08
2023-02-26T23:02:56.791Z,2.10
2023-02-26T23:05:23.484Z,2.00
2023-02-26T23:07:50.059Z,1.88
2023-02-26T23:10:19.667Z,1.92
2023-02-26T23:12:47.090Z,1.77
2023-02-26T23:15:14.130Z,2.75
2023-02-26T23:17:41.885Z,2.00
2023-02-26T23:20:10.518Z,1.70
2023-02-26T23:22:37.655Z,2.47
2023-02-26T23:27:34.497Z,1.80
2023-02-26T23:30:01.016Z,1.73
2023-02-26T23:32:27.634Z,2.17
2023-02-26T23:34:54.164Z,2.15
2023-02-26T23:37:20.765Z,2.13
2023-02-26T23:39:48.949Z,1.83
2023-02-26T23:42:15.606Z,1.73
2023-02-26T23:44:42.122Z,1.98
2023-02-26T23:47:08.520Z,1.70
2023-02-26T23:49:35.145Z,2.00
2023-02-26T23:52:01.764Z,2.05
2023-02-26T23:54:28.387Z,2.13
2023-02-26T23:56:54.896Z,2.20
2023-02-26T23:59:21.409Z,1.85
